sensor_id;sensor_type;location;lat;lon;timestamp;pressure;altitude;pressure_sealevel;temperature;humidity
28456;BME280;15682;56.742;38.866;2024-01-11T00:01:34;97490.0;;;-6.7;89.1
28456;BME280;15682;56.742;38.866;2024-01-11T00:03:34;97480.0;;;-6.8;89.1
28456;BME280;15682;56.742;38.866;2024-01-11T00:05:33;97480.0;;;-6.6;89.1
28456;BME280;15682;56.742;38.866;2024-01-11T00:07:33;97450.0;;;-6.6;89.0
28456;BME280;15682;56.742;38.866;2024-01-11T00:09:33;97450.0;;;-6.7;89.3
28456;BME280;15682;56.742;38.866;2024-01-11T00:11:33;97430.0;;;-6.8;89.9
28456;BME280;15682;56.742;38.866;2024-01-11T00:13:32;97430.0;;;-6.8;89.4
28456;BME280;15682;56.742;38.866;2024-01-11T00:15:32;97430.0;;;-6.6;89.4
28456;BME280;15682;56.742;38.866;2024-01-11T00:17:32;97430.0;;;-6.6;89.4
28456;BME280;15682;56.742;38.866;2024-01-11T00:19:31;97430.0;;;-6.2;90.6
28456;BME280;15682;56.742;38.866;2024-01-11T00:21:31;97400.0;;;-6.3;88.5
28456;BME280;15682;56.742;38.866;2024-01-11T00:23:31;97400.0;;;-6.2;88.5
28456;BME280;15682;56.742;38.866;2024-01-11T00:25:31;97400.0;;;-6.3;88.0
28456;BME280;15682;56.742;38.866;2024-01-11T00:27:30;97380.0;;;-6.5;88.6
28456;BME280;15682;56.742;38.866;2024-01-11T00:29:30;97380.0;;;-6.4;89.3
28456;BME280;15682;56.742;38.866;2024-01-11T00:31:30;97350.0;;;-6.4;88.6
28456;BME280;15682;56.742;38.866;2024-01-11T00:33:29;97350.0;;;-6.4;88.6
28456;BME280;15682;56.742;38.866;2024-01-11T00:35:29;97360.0;;;-6.2;90.8
28456;BME280;15682;56.742;38.866;2024-01-11T00:37:29;97350.0;;;-6.2;88.7
28456;BME280;15682;56.742;38.866;2024-01-11T00:39:29;97350.0;;;-6.3;88.3
28456;BME280;15682;56.742;38.866;2024-01-11T00:41:28;97320.0;;;-6.3;88.3
28456;BME280;15682;56.742;38.866;2024-01-11T00:43:28;97320.0;;;-6.5;88.3
28456;BME280;15682;56.742;38.866;2024-01-11T00:45:29;97320.0;;;-6.5;88.7
28456;BME280;15682;56.742;38.866;2024-01-11T00:47:28;97320.0;;;-6.4;88.7
28456;BME280;15682;56.742;38.866;2024-01-11T00:49:27;97320.0;;;-6.4;88.9
28456;BME280;15682;56.742;38.866;2024-01-11T00:51:27;97310.0;;;-6.4;88.9
28456;BME280;15682;56.742;38.866;2024-01-11T00:53:27;97300.0;;;-6.4;89.7
28456;BME280;15682;56.742;38.866;2024-01-11T00:55:26;97290.0;;;-6.4;88.9
28456;BME280;15682;56.742;38.866;2024-01-11T00:57:26;97280.0;;;-6.4;88.9
28456;BME280;15682;56.742;38.866;2024-01-11T00:59:26;97280.0;;;-6.4;88.9
28456;BME280;15682;56.742;38.866;2024-01-11T01:01:26;97270.0;;;-6.3;88.9
28456;BME280;15682;56.742;38.866;2024-01-11T01:03:25;97260.0;;;-6.2;89.4
28456;BME280;15682;56.742;38.866;2024-01-11T01:05:25;97260.0;;;-6.6;88.8
28456;BME280;15682;56.742;38.866;2024-01-11T01:07:25;97260.0;;;-6.3;88.8
28456;BME280;15682;56.742;38.866;2024-01-11T01:09:24;97250.0;;;-6.0;91.5
28456;BME280;15682;56.742;38.866;2024-01-11T01:11:24;97240.0;;;-6.2;89.5
28456;BME280;15682;56.742;38.866;2024-01-11T01:13:24;97230.0;;;-6.2;89.9
28456;BME280;15682;56.742;38.866;2024-01-11T01:15:24;97230.0;;;-6.3;89.1
28456;BME280;15682;56.742;38.866;2024-01-11T01:17:23;97220.0;;;-6.1;88.6
28456;BME280;15682;56.742;38.866;2024-01-11T01:19:23;97210.0;;;-6.1;89.1
28456;BME280;15682;56.742;38.866;2024-01-11T01:21:23;97210.0;;;-5.9;90.6
28456;BME280;15682;56.742;38.866;2024-01-11T01:23:23;97210.0;;;-5.9;89.1
28456;BME280;15682;56.742;38.866;2024-01-11T01:25:22;97200.0;;;-5.9;91.3
28456;BME280;15682;56.742;38.866;2024-01-11T01:27:22;97180.0;;;-5.7;89.9
28456;BME280;15682;56.742;38.866;2024-01-11T01:29:22;97180.0;;;-5.8;88.5
28456;BME280;15682;56.742;38.866;2024-01-11T01:31:21;97180.0;;;-5.8;88.5
28456;BME280;15682;56.742;38.866;2024-01-11T01:33:22;97170.0;;;-5.8;90.3
28456;BME280;15682;56.742;38.866;2024-01-11T01:35:21;97170.0;;;-5.6;91.5
28456;BME280;15682;56.742;38.866;2024-01-11T01:37:21;97150.0;;;-5.9;89.8
28456;BME280;15682;56.742;38.866;2024-01-11T01:39:20;97130.0;;;-5.9;88.5
28456;BME280;15682;56.742;38.866;2024-01-11T01:41:20;97130.0;;;-5.7;91.3
28456;BME280;15682;56.742;38.866;2024-01-11T01:43:20;97130.0;;;-5.9;88.3
28456;BME280;15682;56.742;38.866;2024-01-11T01:45:20;97120.0;;;-5.9;88.3
28456;BME280;15682;56.742;38.866;2024-01-11T01:47:19;97120.0;;;-5.9;88.3
28456;BME280;15682;56.742;38.866;2024-01-11T01:49:20;97120.0;;;-5.7;88.8
28456;BME280;15682;56.742;38.866;2024-01-11T01:51:19;97100.0;;;-5.4;90.9
28456;BME280;15682;56.742;38.866;2024-01-11T01:53:19;97100.0;;;-5.5;88.7
28456;BME280;15682;56.742;38.866;2024-01-11T01:55:19;97100.0;;;-5.1;93.6
28456;BME280;15682;56.742;38.866;2024-01-11T01:57:19;97070.0;;;-5.4;90.3
28456;BME280;15682;56.742;38.866;2024-01-11T01:59:19;97070.0;;;-5.5;89.6
28456;BME280;15682;56.742;38.866;2024-01-11T02:01:19;97070.0;;;-5.4;89.9
28456;BME280;15682;56.742;38.866;2024-01-11T02:03:17;97070.0;;;-5.5;88.7
28456;BME280;15682;56.742;38.866;2024-01-11T02:05:18;97040.0;;;-5.5;88.7
28456;BME280;15682;56.742;38.866;2024-01-11T02:07:17;97050.0;;;-5.7;90.4
28456;BME280;15682;56.742;38.866;2024-01-11T02:09:17;97050.0;;;-5.2;92.8
28456;BME280;15682;56.742;38.866;2024-01-11T02:11:16;97050.0;;;-5.4;90.6
28456;BME280;15682;56.742;38.866;2024-01-11T02:13:16;97040.0;;;-5.4;91.3
28456;BME280;15682;56.742;38.866;2024-01-11T02:15:16;97040.0;;;-5.4;89.7
28456;BME280;15682;56.742;38.866;2024-01-11T02:17:15;97040.0;;;-5.4;89.0
28456;BME280;15682;56.742;38.866;2024-01-11T02:19:17;97020.0;;;-5.3;91.0
28456;BME280;15682;56.742;38.866;2024-01-11T02:21:16;97020.0;;;-5.2;90.7
28456;BME280;15682;56.742;38.866;2024-01-11T02:23:19;96990.0;;;-5.2;90.2
28456;BME280;15682;56.742;38.866;2024-01-11T02:25:15;96990.0;;;-5.2;90.0
28456;BME280;15682;56.742;38.866;2024-01-11T02:27:14;96980.0;;;-5.2;91.2
28456;BME280;15682;56.742;38.866;2024-01-11T02:29:14;96960.0;;;-5.4;90.5
28456;BME280;15682;56.742;38.866;2024-01-11T02:31:14;96970.0;;;-5.4;92.6
28456;BME280;15682;56.742;38.866;2024-01-11T02:33:14;96970.0;;;-5.2;91.9
28456;BME280;15682;56.742;38.866;2024-01-11T02:35:14;96960.0;;;-5.2;89.6
28456;BME280;15682;56.742;38.866;2024-01-11T02:37:13;96970.0;;;-5.1;89.6
28456;BME280;15682;56.742;38.866;2024-01-11T02:39:13;96960.0;;;-5.1;89.7
28456;BME280;15682;56.742;38.866;2024-01-11T02:41:14;96960.0;;;-4.6;95.0
28456;BME280;15682;56.742;38.866;2024-01-11T02:43:13;96930.0;;;-4.6;91.4
28456;BME280;15682;56.742;38.866;2024-01-11T02:45:12;96930.0;;;-4.9;89.3
28456;BME280;15682;56.742;38.866;2024-01-11T02:47:12;96930.0;;;-4.5;92.2
28456;BME280;15682;56.742;38.866;2024-01-11T02:49:12;96930.0;;;-4.7;92.0
28456;BME280;15682;56.742;38.866;2024-01-11T02:51:11;96930.0;;;-4.8;90.2
28456;BME280;15682;56.742;38.866;2024-01-11T02:53:11;96930.0;;;-4.8;91.9
28456;BME280;15682;56.742;38.866;2024-01-11T02:55:11;96930.0;;;-4.6;89.3
28456;BME280;15682;56.742;38.866;2024-01-11T02:57:11;96920.0;;;-4.4;91.3
28456;BME280;15682;56.742;38.866;2024-01-11T02:59:10;96900.0;;;-4.4;92.4
28456;BME280;15682;56.742;38.866;2024-01-11T03:01:10;96900.0;;;-4.1;94.0
28456;BME280;15682;56.742;38.866;2024-01-11T03:03:10;96900.0;;;-4.1;92.0
28456;BME280;15682;56.742;38.866;2024-01-11T03:05:10;96900.0;;;-4.1;91.1
28456;BME280;15682;56.742;38.866;2024-01-11T03:07:09;96890.0;;;-3.5;95.1
28456;BME280;15682;56.742;38.866;2024-01-11T03:09:09;96880.0;;;-3.7;92.9
28456;BME280;15682;56.742;38.866;2024-01-11T03:11:09;96880.0;;;-3.8;91.6
28456;BME280;15682;56.742;38.866;2024-01-11T03:13:09;96880.0;;;-3.5;93.6
28456;BME280;15682;56.742;38.866;2024-01-11T03:15:09;96880.0;;;-3.6;91.6
28456;BME280;15682;56.742;38.866;2024-01-11T03:17:08;96870.0;;;-3.9;92.5
28456;BME280;15682;56.742;38.866;2024-01-11T03:19:08;96860.0;;;-3.5;93.1
28456;BME280;15682;56.742;38.866;2024-01-11T03:21:08;96850.0;;;-3.3;94.4
28456;BME280;15682;56.742;38.866;2024-01-11T03:23:08;96850.0;;;-3.3;91.5
28456;BME280;15682;56.742;38.866;2024-01-11T03:25:08;96850.0;;;-3.3;90.4
28456;BME280;15682;56.742;38.866;2024-01-11T03:27:07;96850.0;;;-3.5;90.3
28456;BME280;15682;56.742;38.866;2024-01-11T03:29:07;96850.0;;;-3.1;93.1
28456;BME280;15682;56.742;38.866;2024-01-11T03:31:08;96820.0;;;-3.0;93.4
28456;BME280;15682;56.742;38.866;2024-01-11T03:33:07;96820.0;;;-3.0;92.1
28456;BME280;15682;56.742;38.866;2024-01-11T03:35:08;96820.0;;;-3.3;91.4
28456;BME280;15682;56.742;38.866;2024-01-11T03:37:06;96820.0;;;-3.0;93.6
28456;BME280;15682;56.742;38.866;2024-01-11T03:39:06;96820.0;;;-3.1;91.3
28456;BME280;15682;56.742;38.866;2024-01-11T03:41:08;96800.0;;;-3.1;93.7
28456;BME280;15682;56.742;38.866;2024-01-11T03:43:06;96800.0;;;-3.0;91.5
28456;BME280;15682;56.742;38.866;2024-01-11T03:45:06;96800.0;;;-2.6;92.3
28456;BME280;15682;56.742;38.866;2024-01-11T03:47:05;96800.0;;;-2.8;91.1
28456;BME280;15682;56.742;38.866;2024-01-11T03:49:05;96800.0;;;-2.9;92.2
28456;BME280;15682;56.742;38.866;2024-01-11T03:51:05;96800.0;;;-2.8;92.7
28456;BME280;15682;56.742;38.866;2024-01-11T03:53:05;96800.0;;;-3.0;91.0
28456;BME280;15682;56.742;38.866;2024-01-11T03:55:05;96790.0;;;-2.9;92.5
28456;BME280;15682;56.742;38.866;2024-01-11T03:57:05;96790.0;;;-3.0;92.5
28456;BME280;15682;56.742;38.866;2024-01-11T03:59:04;96790.0;;;-3.0;92.7
28456;BME280;15682;56.742;38.866;2024-01-11T04:01:04;96780.0;;;-3.0;92.7
28456;BME280;15682;56.742;38.866;2024-01-11T04:03:06;96780.0;;;-2.8;93.5
28456;BME280;15682;56.742;38.866;2024-01-11T04:05:04;96770.0;;;-2.8;94.1
28456;BME280;15682;56.742;38.866;2024-01-11T04:07:04;96770.0;;;-2.6;93.7
28456;BME280;15682;56.742;38.866;2024-01-11T04:09:03;96770.0;;;-2.8;91.5
28456;BME280;15682;56.742;38.866;2024-01-11T04:11:03;96770.0;;;-2.8;92.6
28456;BME280;15682;56.742;38.866;2024-01-11T04:13:03;96780.0;;;-2.8;91.7
28456;BME280;15682;56.742;38.866;2024-01-11T04:15:03;96780.0;;;-2.7;93.5
28456;BME280;15682;56.742;38.866;2024-01-11T04:17:02;96780.0;;;-2.7;92.5
28456;BME280;15682;56.742;38.866;2024-01-11T04:19:02;96780.0;;;-2.3;94.8
28456;BME280;15682;56.742;38.866;2024-01-11T04:21:02;96780.0;;;-2.2;95.3
28456;BME280;15682;56.742;38.866;2024-01-11T04:23:02;96780.0;;;-1.9;95.6
28456;BME280;15682;56.742;38.866;2024-01-11T04:25:01;96770.0;;;-1.9;93.9
28456;BME280;15682;56.742;38.866;2024-01-11T04:27:01;96770.0;;;-2.1;92.5
28456;BME280;15682;56.742;38.866;2024-01-11T04:29:01;96770.0;;;-2.2;93.9
28456;BME280;15682;56.742;38.866;2024-01-11T04:31:01;96740.0;;;-2.1;94.1
28456;BME280;15682;56.742;38.866;2024-01-11T04:33:01;96740.0;;;-1.7;95.8
28456;BME280;15682;56.742;38.866;2024-01-11T04:35:01;96740.0;;;-1.8;93.6
28456;BME280;15682;56.742;38.866;2024-01-11T04:37:00;96740.0;;;-1.8;93.6
28456;BME280;15682;56.742;38.866;2024-01-11T04:39:00;96740.0;;;-1.8;92.6
28456;BME280;15682;56.742;38.866;2024-01-11T04:41:00;96720.0;;;-1.8;92.5
28456;BME280;15682;56.742;38.866;2024-01-11T04:43:00;96720.0;;;-1.4;92.3
28456;BME280;15682;56.742;38.866;2024-01-11T04:45:00;96720.0;;;-1.4;92.2
28456;BME280;15682;56.742;38.866;2024-01-11T04:47:00;96700.0;;;-1.2;94.3
28456;BME280;15682;56.742;38.866;2024-01-11T04:48:59;96700.0;;;-1.4;92.4
28456;BME280;15682;56.742;38.866;2024-01-11T04:50:59;96700.0;;;-1.2;93.1
28456;BME280;15682;56.742;38.866;2024-01-11T04:52:59;96700.0;;;-1.2;92.5
28456;BME280;15682;56.742;38.866;2024-01-11T04:54:59;96700.0;;;-1.0;92.6
28456;BME280;15682;56.742;38.866;2024-01-11T04:56:58;96700.0;;;-0.8;93.8
28456;BME280;15682;56.742;38.866;2024-01-11T04:58:58;96700.0;;;-0.8;92.5
28456;BME280;15682;56.742;38.866;2024-01-11T05:00:58;96700.0;;;-0.7;92.2
28456;BME280;15682;56.742;38.866;2024-01-11T05:02:58;96700.0;;;-1.0;91.7
28456;BME280;15682;56.742;38.866;2024-01-11T05:04:58;96700.0;;;-1.0;92.4
28456;BME280;15682;56.742;38.866;2024-01-11T05:06:58;96700.0;;;-0.8;92.4
28456;BME280;15682;56.742;38.866;2024-01-11T05:08:58;96710.0;;;-0.8;94.0
28456;BME280;15682;56.742;38.866;2024-01-11T05:10:57;96710.0;;;-0.5;93.8
28456;BME280;15682;56.742;38.866;2024-01-11T05:12:57;96710.0;;;-0.7;93.2
28456;BME280;15682;56.742;38.866;2024-01-11T05:14:57;96710.0;;;-0.7;92.3
28456;BME280;15682;56.742;38.866;2024-01-11T05:16:57;96710.0;;;-0.7;93.1
28456;BME280;15682;56.742;38.866;2024-01-11T05:18:57;96710.0;;;-0.9;92.6
28456;BME280;15682;56.742;38.866;2024-01-11T05:20:57;96700.0;;;-0.7;94.5
28456;BME280;15682;56.742;38.866;2024-01-11T05:22:56;96700.0;;;-0.8;92.4
28456;BME280;15682;56.742;38.866;2024-01-11T05:24:56;96680.0;;;-0.7;93.5
28456;BME280;15682;56.742;38.866;2024-01-11T05:26:56;96670.0;;;-0.7;92.7
28456;BME280;15682;56.742;38.866;2024-01-11T05:28:56;96660.0;;;-0.6;92.5
28456;BME280;15682;56.742;38.866;2024-01-11T05:30:56;96660.0;;;-0.6;93.3
28456;BME280;15682;56.742;38.866;2024-01-11T05:32:56;96660.0;;;-0.6;92.2
28456;BME280;15682;56.742;38.866;2024-01-11T05:34:56;96660.0;;;-0.5;92.2
28456;BME280;15682;56.742;38.866;2024-01-11T05:36:55;96660.0;;;-0.5;92.8
28456;BME280;15682;56.742;38.866;2024-01-11T05:38:55;96660.0;;;-0.5;92.4
28456;BME280;15682;56.742;38.866;2024-01-11T05:40:55;96660.0;;;-0.5;92.4
28456;BME280;15682;56.742;38.866;2024-01-11T05:42:55;96660.0;;;-0.3;93.3
28456;BME280;15682;56.742;38.866;2024-01-11T05:44:55;96660.0;;;-0.4;93.3
28456;BME280;15682;56.742;38.866;2024-01-11T05:46:55;96660.0;;;-0.4;94.1
28456;BME280;15682;56.742;38.866;2024-01-11T05:48:55;96660.0;;;-0.3;94.2
28456;BME280;15682;56.742;38.866;2024-01-11T05:50:54;96660.0;;;-0.3;93.5
28456;BME280;15682;56.742;38.866;2024-01-11T05:52:54;96660.0;;;-0.0;94.4
28456;BME280;15682;56.742;38.866;2024-01-11T05:54:54;96660.0;;;-0.3;93.7
28456;BME280;15682;56.742;38.866;2024-01-11T05:56:54;96660.0;;;-0.3;93.7
28456;BME280;15682;56.742;38.866;2024-01-11T05:58:54;96660.0;;;-0.2;94.0
28456;BME280;15682;56.742;38.866;2024-01-11T06:00:54;96660.0;;;-0.2;94.0
28456;BME280;15682;56.742;38.866;2024-01-11T06:02:54;96640.0;;;-0.0;94.0
28456;BME280;15682;56.742;38.866;2024-01-11T06:04:53;96630.0;;;-0.0;93.1
28456;BME280;15682;56.742;38.866;2024-01-11T06:06:53;96630.0;;;-0.1;93.9
28456;BME280;15682;56.742;38.866;2024-01-11T06:08:53;96630.0;;;0.0;93.1
28456;BME280;15682;56.742;38.866;2024-01-11T06:10:53;96630.0;;;-0.2;93.1
28456;BME280;15682;56.742;38.866;2024-01-11T06:12:53;96630.0;;;-0.3;93.1
28456;BME280;15682;56.742;38.866;2024-01-11T06:14:53;96630.0;;;-0.0;94.0
28456;BME280;15682;56.742;38.866;2024-01-11T06:16:52;96630.0;;;-0.0;93.5
28456;BME280;15682;56.742;38.866;2024-01-11T06:18:52;96630.0;;;-0.1;92.9
28456;BME280;15682;56.742;38.866;2024-01-11T06:20:52;96630.0;;;-0.1;92.9
28456;BME280;15682;56.742;38.866;2024-01-11T06:22:52;96630.0;;;-0.2;92.4
28456;BME280;15682;56.742;38.866;2024-01-11T06:24:52;96630.0;;;0.1;93.9
28456;BME280;15682;56.742;38.866;2024-01-11T06:26:52;96630.0;;;0.1;93.6
28456;BME280;15682;56.742;38.866;2024-01-11T06:28:52;96630.0;;;0.1;92.8
28456;BME280;15682;56.742;38.866;2024-01-11T06:30:51;96630.0;;;-0.1;92.8
28456;BME280;15682;56.742;38.866;2024-01-11T06:32:51;96630.0;;;0.1;92.0
28456;BME280;15682;56.742;38.866;2024-01-11T06:34:51;96630.0;;;0.3;93.5
28456;BME280;15682;56.742;38.866;2024-01-11T06:36:51;96630.0;;;0.3;92.8
28456;BME280;15682;56.742;38.866;2024-01-11T06:38:51;96630.0;;;0.2;92.3
28456;BME280;15682;56.742;38.866;2024-01-11T06:40:51;96630.0;;;0.0;91.7
28456;BME280;15682;56.742;38.866;2024-01-11T06:42:51;96630.0;;;0.3;95.1
28456;BME280;15682;56.742;38.866;2024-01-11T06:44:50;96630.0;;;0.3;92.3
28456;BME280;15682;56.742;38.866;2024-01-11T06:46:50;96630.0;;;0.2;92.3
28456;BME280;15682;56.742;38.866;2024-01-11T06:48:50;96640.0;;;0.2;93.1
28456;BME280;15682;56.742;38.866;2024-01-11T06:50:50;96640.0;;;0.2;91.5
28456;BME280;15682;56.742;38.866;2024-01-11T06:52:50;96640.0;;;0.3;91.5
28456;BME280;15682;56.742;38.866;2024-01-11T06:54:50;96640.0;;;0.3;91.5
28456;BME280;15682;56.742;38.866;2024-01-11T06:56:50;96640.0;;;0.2;91.5
28456;BME280;15682;56.742;38.866;2024-01-11T06:58:50;96650.0;;;0.1;91.8
28456;BME280;15682;56.742;38.866;2024-01-11T07:00:49;96670.0;;;-0.1;91.8
28456;BME280;15682;56.742;38.866;2024-01-11T07:02:49;96680.0;;;-0.3;90.8
28456;BME280;15682;56.742;38.866;2024-01-11T07:04:49;96700.0;;;-0.9;90.8
28456;BME280;15682;56.742;38.866;2024-01-11T07:06:49;96700.0;;;-0.9;91.3
28456;BME280;15682;56.742;38.866;2024-01-11T07:08:49;96700.0;;;-1.0;89.8
28456;BME280;15682;56.742;38.866;2024-01-11T07:10:49;96700.0;;;-1.2;89.8
28456;BME280;15682;56.742;38.866;2024-01-11T07:12:49;96700.0;;;-1.2;89.0
28456;BME280;15682;56.742;38.866;2024-01-11T07:14:48;96700.0;;;-1.2;89.0
28456;BME280;15682;56.742;38.866;2024-01-11T07:16:48;96720.0;;;-1.2;88.5
28456;BME280;15682;56.742;38.866;2024-01-11T07:18:48;96720.0;;;-1.0;87.7
28456;BME280;15682;56.742;38.866;2024-01-11T07:20:48;96720.0;;;-1.2;87.6
28456;BME280;15682;56.742;38.866;2024-01-11T07:22:48;96720.0;;;-1.2;87.6
28456;BME280;15682;56.742;38.866;2024-01-11T07:24:48;96730.0;;;-1.4;87.6
28456;BME280;15682;56.742;38.866;2024-01-11T07:26:48;96750.0;;;-1.3;87.6
28456;BME280;15682;56.742;38.866;2024-01-11T07:28:47;96750.0;;;-1.6;87.6
28456;BME280;15682;56.742;38.866;2024-01-11T07:30:47;96780.0;;;-1.7;86.3
28456;BME280;15682;56.742;38.866;2024-01-11T07:32:47;96780.0;;;-2.1;86.3
28456;BME280;15682;56.742;38.866;2024-01-11T07:34:47;96780.0;;;-2.3;87.1
28456;BME280;15682;56.742;38.866;2024-01-11T07:36:47;96800.0;;;-2.3;85.9
28456;BME280;15682;56.742;38.866;2024-01-11T07:38:47;96800.0;;;-2.4;86.5
28456;BME280;15682;56.742;38.866;2024-01-11T07:40:46;96800.0;;;-2.4;85.8
28456;BME280;15682;56.742;38.866;2024-01-11T07:42:46;96800.0;;;-2.5;85.8
28456;BME280;15682;56.742;38.866;2024-01-11T07:44:46;96800.0;;;-2.5;85.8
28456;BME280;15682;56.742;38.866;2024-01-11T07:46:46;96820.0;;;-2.4;85.8
28456;BME280;15682;56.742;38.866;2024-01-11T07:48:46;96820.0;;;-2.4;85.1
28456;BME280;15682;56.742;38.866;2024-01-11T07:50:45;96830.0;;;-2.6;85.3
28456;BME280;15682;56.742;38.866;2024-01-11T07:52:45;96830.0;;;-2.7;85.8
28456;BME280;15682;56.742;38.866;2024-01-11T07:54:45;96830.0;;;-2.5;85.2
28456;BME280;15682;56.742;38.866;2024-01-11T07:56:45;96830.0;;;-2.5;85.2
28456;BME280;15682;56.742;38.866;2024-01-11T07:58:45;96840.0;;;-2.8;85.2
28456;BME280;15682;56.742;38.866;2024-01-11T08:00:45;96840.0;;;-2.5;85.9
28456;BME280;15682;56.742;38.866;2024-01-11T08:02:44;96850.0;;;-2.7;85.4
28456;BME280;15682;56.742;38.866;2024-01-11T08:04:44;96850.0;;;-2.8;85.4
28456;BME280;15682;56.742;38.866;2024-01-11T08:06:44;96860.0;;;-2.8;85.4
28456;BME280;15682;56.742;38.866;2024-01-11T08:08:44;96860.0;;;-3.0;85.4
28456;BME280;15682;56.742;38.866;2024-01-11T08:10:44;96860.0;;;-2.9;84.4
28456;BME280;15682;56.742;38.866;2024-01-11T08:12:43;96870.0;;;-2.9;83.3
28456;BME280;15682;56.742;38.866;2024-01-11T08:14:43;96870.0;;;-3.1;83.3
28456;BME280;15682;56.742;38.866;2024-01-11T08:16:43;96870.0;;;-3.1;83.3
28456;BME280;15682;56.742;38.866;2024-01-11T08:18:43;96870.0;;;-3.1;83.3
28456;BME280;15682;56.742;38.866;2024-01-11T08:20:43;96900.0;;;-3.1;82.3
28456;BME280;15682;56.742;38.866;2024-01-11T08:22:43;96900.0;;;-3.2;82.8
28456;BME280;15682;56.742;38.866;2024-01-11T08:24:42;96900.0;;;-3.4;82.8
28456;BME280;15682;56.742;38.866;2024-01-11T08:26:42;96900.0;;;-3.4;82.8
28456;BME280;15682;56.742;38.866;2024-01-11T08:28:42;96900.0;;;-3.5;83.5
28456;BME280;15682;56.742;38.866;2024-01-11T08:30:42;96900.0;;;-3.5;83.6
28456;BME280;15682;56.742;38.866;2024-01-11T08:32:42;96910.0;;;-3.4;83.6
28456;BME280;15682;56.742;38.866;2024-01-11T08:34:41;96910.0;;;-3.4;84.1
28456;BME280;15682;56.742;38.866;2024-01-11T08:36:41;96910.0;;;-3.4;84.1
28456;BME280;15682;56.742;38.866;2024-01-11T08:38:41;96910.0;;;-3.6;83.5
28456;BME280;15682;56.742;38.866;2024-01-11T08:40:40;96920.0;;;-3.9;83.5
28456;BME280;15682;56.742;38.866;2024-01-11T08:42:40;96920.0;;;-3.8;82.5
28456;BME280;15682;56.742;38.866;2024-01-11T08:44:41;96920.0;;;-3.8;82.5
28456;BME280;15682;56.742;38.866;2024-01-11T08:46:40;96920.0;;;-3.6;81.6
28456;BME280;15682;56.742;38.866;2024-01-11T08:48:40;96930.0;;;-3.9;81.6
28456;BME280;15682;56.742;38.866;2024-01-11T08:50:39;96930.0;;;-3.6;81.5
28456;BME280;15682;56.742;38.866;2024-01-11T08:52:40;96930.0;;;-3.9;81.5
28456;BME280;15682;56.742;38.866;2024-01-11T08:54:39;96930.0;;;-3.9;81.5
28456;BME280;15682;56.742;38.866;2024-01-11T08:56:39;96940.0;;;-3.9;82.2
28456;BME280;15682;56.742;38.866;2024-01-11T08:58:39;96940.0;;;-4.0;82.2
28456;BME280;15682;56.742;38.866;2024-01-11T09:00:38;96940.0;;;-3.8;81.5
28456;BME280;15682;56.742;38.866;2024-01-11T09:02:38;96950.0;;;-3.9;81.5
28456;BME280;15682;56.742;38.866;2024-01-11T09:04:38;96950.0;;;-4.0;82.1
28456;BME280;15682;56.742;38.866;2024-01-11T09:06:38;96950.0;;;-3.8;81.0
28456;BME280;15682;56.742;38.866;2024-01-11T09:08:37;96950.0;;;-3.8;81.5
28456;BME280;15682;56.742;38.866;2024-01-11T09:10:37;96950.0;;;-3.9;80.9
28456;BME280;15682;56.742;38.866;2024-01-11T09:12:37;96950.0;;;-4.3;80.9
28456;BME280;15682;56.742;38.866;2024-01-11T09:14:37;96950.0;;;-4.1;81.7
28456;BME280;15682;56.742;38.866;2024-01-11T09:16:37;96970.0;;;-4.3;81.1
28456;BME280;15682;56.742;38.866;2024-01-11T09:18:36;96970.0;;;-4.2;81.1
28456;BME280;15682;56.742;38.866;2024-01-11T09:20:36;96970.0;;;-4.0;80.4
28456;BME280;15682;56.742;38.866;2024-01-11T09:22:36;96970.0;;;-4.3;79.7
28456;BME280;15682;56.742;38.866;2024-01-11T09:24:36;96980.0;;;-4.1;80.6
28456;BME280;15682;56.742;38.866;2024-01-11T09:26:35;96980.0;;;-4.4;80.6
28456;BME280;15682;56.742;38.866;2024-01-11T09:28:35;96980.0;;;-4.4;80.6
28456;BME280;15682;56.742;38.866;2024-01-11T09:30:35;96990.0;;;-4.8;80.1
28456;BME280;15682;56.742;38.866;2024-01-11T09:32:35;96990.0;;;-4.5;80.1
28456;BME280;15682;56.742;38.866;2024-01-11T09:34:34;96990.0;;;-4.5;80.1
28456;BME280;15682;56.742;38.866;2024-01-11T09:36:34;96980.0;;;-4.5;80.7
28456;BME280;15682;56.742;38.866;2024-01-11T09:38:34;96990.0;;;-4.8;80.1
28456;BME280;15682;56.742;38.866;2024-01-11T09:40:34;96990.0;;;-4.8;80.0
28456;BME280;15682;56.742;38.866;2024-01-11T09:42:34;96990.0;;;-4.6;80.0
28456;BME280;15682;56.742;38.866;2024-01-11T09:44:33;97000.0;;;-4.6;79.5
28456;BME280;15682;56.742;38.866;2024-01-11T09:46:33;97000.0;;;-4.8;79.5
28456;BME280;15682;56.742;38.866;2024-01-11T09:48:35;97000.0;;;-4.6;79.5
28456;BME280;15682;56.742;38.866;2024-01-11T09:50:33;97010.0;;;-4.8;78.6
28456;BME280;15682;56.742;38.866;2024-01-11T09:52:33;97020.0;;;-5.1;78.6
28456;BME280;15682;56.742;38.866;2024-01-11T09:54:32;97020.0;;;-5.2;78.6
28456;BME280;15682;56.742;38.866;2024-01-11T09:56:32;97020.0;;;-5.4;78.6
28456;BME280;15682;56.742;38.866;2024-01-11T09:58:33;97020.0;;;-5.5;78.6
28456;BME280;15682;56.742;38.866;2024-01-11T10:00:32;97020.0;;;-5.5;79.2
28456;BME280;15682;56.742;38.866;2024-01-11T10:02:31;97020.0;;;-5.6;79.2
28456;BME280;15682;56.742;38.866;2024-01-11T10:04:31;97020.0;;;-5.4;78.5
28456;BME280;15682;56.742;38.866;2024-01-11T10:06:32;97020.0;;;-5.6;78.5
28456;BME280;15682;56.742;38.866;2024-01-11T10:08:31;97020.0;;;-5.7;79.6
28456;BME280;15682;56.742;38.866;2024-01-11T10:10:30;97020.0;;;-5.7;78.8
28456;BME280;15682;56.742;38.866;2024-01-11T10:12:30;97020.0;;;-5.6;78.1
28456;BME280;15682;56.742;38.866;2024-01-11T10:14:30;97030.0;;;-5.8;78.1
28456;BME280;15682;56.742;38.866;2024-01-11T10:16:29;97030.0;;;-5.8;78.1
28456;BME280;15682;56.742;38.866;2024-01-11T10:18:29;97040.0;;;-6.1;79.1
28456;BME280;15682;56.742;38.866;2024-01-11T10:20:29;97050.0;;;-5.9;79.7
28456;BME280;15682;56.742;38.866;2024-01-11T10:22:29;97050.0;;;-5.8;79.7
28456;BME280;15682;56.742;38.866;2024-01-11T10:24:28;97050.0;;;-5.8;79.7
28456;BME280;15682;56.742;38.866;2024-01-11T10:26:28;97050.0;;;-5.4;79.7
28456;BME280;15682;56.742;38.866;2024-01-11T10:28:28;97070.0;;;-5.4;80.3
28456;BME280;15682;56.742;38.866;2024-01-11T10:30:27;97070.0;;;-5.4;80.7
28456;BME280;15682;56.742;38.866;2024-01-11T10:32:28;97080.0;;;-5.2;81.3
28456;BME280;15682;56.742;38.866;2024-01-11T10:34:27;97080.0;;;-5.7;82.2
28456;BME280;15682;56.742;38.866;2024-01-11T10:36:30;97080.0;;;-5.6;82.9
28456;BME280;15682;56.742;38.866;2024-01-11T10:38:28;97080.0;;;-5.5;83.5
28456;BME280;15682;56.742;38.866;2024-01-11T10:40:26;97080.0;;;-5.5;84.3
28456;BME280;15682;56.742;38.866;2024-01-11T10:42:27;97100.0;;;-5.5;83.0
28456;BME280;15682;56.742;38.866;2024-01-11T10:44:26;97100.0;;;-5.5;83.5
28456;BME280;15682;56.742;38.866;2024-01-11T10:46:26;97100.0;;;-5.5;83.5
28456;BME280;15682;56.742;38.866;2024-01-11T10:48:25;97100.0;;;-5.5;83.5
28456;BME280;15682;56.742;38.866;2024-01-11T10:50:25;97100.0;;;-5.5;85.2
28456;BME280;15682;56.742;38.866;2024-01-11T10:52:28;97120.0;;;-5.9;82.0